createdAt,value
2022-10-10T00:01:10.103Z,4.13
2022-10-10T00:03:36.573Z,3.85
2022-10-10T00:06:02.926Z,4.40
2022-10-10T00:08:29.547Z,4.88
2022-10-10T00:10:55.977Z,4.30
2022-10-10T00:13:22.370Z,4.15
2022-10-10T00:15:49.054Z,4.40
2022-10-10T00:18:15.642Z,4.53
2022-10-10T00:20:41.954Z,3.85
2022-10-10T00:23:08.351Z,4.45
2022-10-10T00:25:34.716Z,4.07
2022-10-10T00:28:02.616Z,4.20
2022-10-10T00:30:29.484Z,4.13
2022-10-10T00:32:55.900Z,4.25
2022-10-10T00:35:22.239Z,3.78
2022-10-10T00:37:48.624Z,3.92
2022-10-10T00:40:15.056Z,4.07
2022-10-10T00:42:41.459Z,3.58
2022-10-10T00:45:26.351Z,3.65
2022-10-10T00:47:54.563Z,3.90
2022-10-10T00:50:21.614Z,3.80
2022-10-10T00:52:48.286Z,4.30
2022-10-10T00:55:15.191Z,3.75
2022-10-10T00:57:41.763Z,4.10
2022-10-10T01:00:08.723Z,3.92
2022-10-10T01:02:35.423Z,4.10
2022-10-10T01:05:01.957Z,3.63
2022-10-10T01:07:29.930Z,3.90
2022-10-10T01:09:57.536Z,3.90
2022-10-10T01:12:32.914Z,3.80
2022-10-10T01:14:59.263Z,4.18
2022-10-10T01:17:26.736Z,3.78
2022-10-10T01:19:53.046Z,3.90
2022-10-10T01:22:28.897Z,3.80
2022-10-10T01:25:06.554Z,3.67
2022-10-10T01:27:52.041Z,4.25
2022-10-10T01:30:21.319Z,3.75
2022-10-10T01:33:23.318Z,4.05
2022-10-10T01:35:52.417Z,3.85
2022-10-10T01:38:24.575Z,4.30
2022-10-10T01:40:54.819Z,4.57
2022-10-10T01:43:21.232Z,4.68
2022-10-10T01:45:48.960Z,4.47
2022-10-10T01:48:17.020Z,4.13
2022-10-10T01:51:03.605Z,3.70
2022-10-10T01:53:41.998Z,4.00
2022-10-10T01:56:09.638Z,4.05
2022-10-10T01:58:39.007Z,4.32
2022-10-10T02:01:21.979Z,4.38
2022-10-10T02:03:53.263Z,4.78
2022-10-10T02:06:24.454Z,4.35
2022-10-10T02:08:59.989Z,3.53
2022-10-10T02:11:28.309Z,3.60
2022-10-10T02:14:01.049Z,3.72
2022-10-10T02:16:29.849Z,3.53
2022-10-10T02:18:57.207Z,4.68
2022-10-10T02:21:23.921Z,4.15
2022-10-10T02:23:50.806Z,4.13
2022-10-10T02:26:18.570Z,4.05
2022-10-10T02:28:57.357Z,3.83
2022-10-10T02:31:33.051Z,4.13
2022-10-10T02:34:05.047Z,4.60
2022-10-10T02:36:31.579Z,3.80
2022-10-10T02:38:58.334Z,4.32
2022-10-10T02:41:25.026Z,4.38
2022-10-10T02:43:51.852Z,4.05
2022-10-10T02:46:18.304Z,4.15
2022-10-10T02:48:44.772Z,4.40
2022-10-10T02:51:12.361Z,4.38
2022-10-10T02:53:38.836Z,4.20
2022-10-10T02:56:05.329Z,3.85
2022-10-10T02:58:31.681Z,4.70
2022-10-10T03:00:58.124Z,3.78
2022-10-10T03:03:25.666Z,4.57
2022-10-10T03:05:52.097Z,3.80
2022-10-10T03:08:18.515Z,4.50
2022-10-10T03:10:55.820Z,4.60
2022-10-10T03:13:22.380Z,4.55
2022-10-10T03:15:48.722Z,3.90
2022-10-10T03:18:15.106Z,4.63
2022-10-10T03:20:41.468Z,4.85
2022-10-10T03:23:07.821Z,4.40
2022-10-10T03:25:34.978Z,4.32
2022-10-10T03:28:01.469Z,4.20
2022-10-10T03:30:27.809Z,4.43
2022-10-10T03:32:54.264Z,4.30
2022-10-10T03:35:20.652Z,3.88
2022-10-10T03:37:47.020Z,3.97
2022-10-10T03:40:13.371Z,4.53
2022-10-10T03:42:39.721Z,4.50
2022-10-10T03:45:06.631Z,4.13
2022-10-10T03:47:33.019Z,4.75
2022-10-10T03:49:59.427Z,4.40
2022-10-10T03:52:25.778Z,4.38
2022-10-10T03:54:52.133Z,4.40
2022-10-10T03:57:18.454Z,4.30
2022-10-10T03:59:44.796Z,4.32
2022-10-10T04:02:11.132Z,4.65
2022-10-10T04:04:37.493Z,4.65
2022-10-10T04:07:03.849Z,4.47
2022-10-10T04:09:30.713Z,4.28
2022-10-10T04:11:57.060Z,5.00
2022-10-10T04:14:23.457Z,4.93
2022-10-10T04:16:49.805Z,4.68
2022-10-10T04:19:16.151Z,5.50
2022-10-10T04:21:42.513Z,5.10
2022-10-10T04:24:09.291Z,5.25
2022-10-10T04:26:35.667Z,5.85
2022-10-10T04:29:02.185Z,4.82
2022-10-10T04:31:28.561Z,4.80
2022-10-10T04:33:54.947Z,6.07
2022-10-10T04:36:21.313Z,5.00
2022-10-10T04:38:47.730Z,4.72
2022-10-10T04:41:14.079Z,4.30
2022-10-10T04:43:40.426Z,4.38
2022-10-10T04:46:06.854Z,4.65
2022-10-10T04:48:33.255Z,4.63
2022-10-10T04:50:59.617Z,4.70
2022-10-10T04:53:26.993Z,4.78
2022-10-10T04:55:53.394Z,4.53
2022-10-10T04:58:19.914Z,4.55
2022-10-10T05:00:50.192Z,4.28
2022-10-10T05:03:16.568Z,4.47
2022-10-10T05:05:43.122Z,4.30
2022-10-10T05:08:09.723Z,4.38
2022-10-10T05:10:38.848Z,4.25
2022-10-10T05:13:06.136Z,4.45
2022-10-10T05:15:35.792Z,4.57
2022-10-10T05:18:02.560Z,4.18
2022-10-10T05:20:29.079Z,4.20
2022-10-10T05:22:55.425Z,4.03
2022-10-10T05:25:21.987Z,3.80
2022-10-10T05:27:48.492Z,3.72
2022-10-10T05:30:14.873Z,4.00
2022-10-10T05:32:41.298Z,4.05
2022-10-10T05:35:07.965Z,3.90
2022-10-10T05:37:34.319Z,3.83
2022-10-10T05:40:01.016Z,3.90
2022-10-10T05:42:27.599Z,3.75
2022-10-10T05:44:53.964Z,4.32
2022-10-10T05:47:24.206Z,3.45
2022-10-10T05:49:53.227Z,3.90
2022-10-10T05:52:19.576Z,4.18
2022-10-10T05:54:46.001Z,3.75
2022-10-10T05:57:16.235Z,4.70
2022-10-10T05:59:42.939Z,6.20
2022-10-10T06:02:09.348Z,6.57
2022-10-10T06:04:35.867Z,4.30
2022-10-10T06:07:02.257Z,4.00
2022-10-10T06:09:28.607Z,4.00
2022-10-10T06:11:54.964Z,4.50
2022-10-10T06:14:21.351Z,4.82
2022-10-10T06:16:47.757Z,4.43
2022-10-10T06:19:15.220Z,4.65
2022-10-10T06:21:41.778Z,4.13
2022-10-10T06:24:08.739Z,4.32
2022-10-10T06:26:35.119Z,4.47
2022-10-10T06:29:01.547Z,4.38
2022-10-10T06:34:23.712Z,8.40
2022-10-10T06:36:51.478Z,4.85
2022-10-10T06:39:18.092Z,4.70
2022-10-10T06:41:44.512Z,4.90
2022-10-10T06:44:11.102Z,4.70
2022-10-10T06:46:37.551Z,5.50
2022-10-10T06:49:04.574Z,5.35
2022-10-10T06:51:30.918Z,4.65
2022-10-10T06:53:58.047Z,4.35
2022-10-10T06:56:27.648Z,4.65
2022-10-10T06:58:54.246Z,4.70
2022-10-10T07:01:21.538Z,4.65
2022-10-10T07:03:47.926Z,4.45
2022-10-10T07:06:14.618Z,4.55
2022-10-10T07:08:41.522Z,4.90
2022-10-10T07:11:08.560Z,4.70
2022-10-10T07:13:35.497Z,5.50
2022-10-10T07:16:02.511Z,4.40
2022-10-10T07:18:28.856Z,4.57
2022-10-10T07:20:56.138Z,7.60
2022-10-10T07:23:22.484Z,6.05
2022-10-10T07:25:48.808Z,5.65
2022-10-10T07:28:15.302Z,4.53
2022-10-10T07:30:43.678Z,6.72
2022-10-10T07:33:10.742Z,5.25
2022-10-10T07:35:37.102Z,5.72
2022-10-10T07:38:03.472Z,5.00
2022-10-10T07:40:29.871Z,5.60
2022-10-10T07:42:56.312Z,4.88
2022-10-10T07:45:22.681Z,5.28
2022-10-10T07:47:49.342Z,5.22
2022-10-10T07:50:15.983Z,5.35
2022-10-10T07:52:42.631Z,5.78
2022-10-10T07:55:09.247Z,5.80
2022-10-10T07:57:35.690Z,5.35
2022-10-10T08:00:03.174Z,5.90
2022-10-10T08:02:38.701Z,6.07
2022-10-10T08:05:05.295Z,5.25
2022-10-10T08:07:31.771Z,6.07
2022-10-10T08:09:58.516Z,5.88
2022-10-10T08:12:25.193Z,6.03
2022-10-10T08:14:51.685Z,5.90
2022-10-10T08:17:18.103Z,5.68
2022-10-10T08:19:44.496Z,5.82
2022-10-10T08:22:10.959Z,6.65
2022-10-10T08:24:37.328Z,6.80
2022-10-10T08:27:03.768Z,6.75
2022-10-10T08:29:31.487Z,6.63
2022-10-10T08:31:58.959Z,7.78
2022-10-10T08:34:25.357Z,6.82
2022-10-10T08:36:51.822Z,6.50
2022-10-10T08:39:18.222Z,6.53
2022-10-10T08:41:58.363Z,5.65
2022-10-10T08:44:42.447Z,5.40
2022-10-10T08:47:14.667Z,5.25
2022-10-10T08:50:02.140Z,6.03
2022-10-10T08:52:38.521Z,5.80
2022-10-10T08:55:13.568Z,5.40
2022-10-10T08:57:58.479Z,6.30
2022-10-10T09:00:28.170Z,6.70
2022-10-10T09:03:00.900Z,8.40
2022-10-10T09:05:35.779Z,6.13
2022-10-10T09:08:17.569Z,5.75
2022-10-10T09:10:44.258Z,5.97
2022-10-10T09:13:19.616Z,5.45
2022-10-10T09:15:52.334Z,6.28
2022-10-10T09:18:25.133Z,5.85
2022-10-10T09:20:56.408Z,6.03
2022-10-10T09:23:38.730Z,6.25
2022-10-10T09:26:11.313Z,7.07
2022-10-10T09:28:46.956Z,7.00
2022-10-10T09:31:18.573Z,7.00
2022-10-10T09:33:44.936Z,6.90
2022-10-10T09:36:14.558Z,6.05
2022-10-10T09:38:49.079Z,6.43
2022-10-10T09:41:15.430Z,6.05
2022-10-10T09:43:41.954Z,7.22
2022-10-10T09:46:08.356Z,6.30
2022-10-10T09:48:36.915Z,6.72
2022-10-10T09:51:04.532Z,6.82
2022-10-10T09:53:30.935Z,6.10
2022-10-10T09:55:58.452Z,5.60
2022-10-10T09:58:28.059Z,5.88
2022-10-10T10:00:54.600Z,6.07
2022-10-10T10:03:22.082Z,6.43
2022-10-10T10:05:59.565Z,6.22
2022-10-10T10:08:30.385Z,5.90
2022-10-10T10:11:00.311Z,5.40
2022-10-10T10:13:31.368Z,5.32
2022-10-10T10:16:09.044Z,5.28
2022-10-10T10:18:40.446Z,5.18
2022-10-10T10:21:09.989Z,4.93
2022-10-10T10:23:41.667Z,4.78
2022-10-10T10:26:31.020Z,4.72
2022-10-10T10:28:58.014Z,4.32
2022-10-10T10:31:30.911Z,4.25
2022-10-10T10:34:06.722Z,4.70
2022-10-10T10:36:33.121Z,4.47
2022-10-10T10:39:18.270Z,4.10
2022-10-10T10:42:02.538Z,4.50
2022-10-10T10:44:33.519Z,3.78
2022-10-10T10:47:22.371Z,4.22
2022-10-10T10:50:08.339Z,3.50
2022-10-10T10:52:50.129Z,3.78
2022-10-10T10:55:39.299Z,3.70
2022-10-10T11:01:54.758Z,3.40
2022-10-10T11:05:23.000Z,4.40
2022-10-10T11:07:25.821Z,4.75
2022-10-10T11:09:52.295Z,3.40
2022-10-10T11:12:37.429Z,3.80
2022-10-10T11:15:10.209Z,3.45
2022-10-10T11:17:39.380Z,3.60
2022-10-10T11:20:07.937Z,4.55
2022-10-10T11:22:41.199Z,3.03
2022-10-10T11:25:13.825Z,3.38
2022-10-10T11:27:48.103Z,3.60
2022-10-10T11:30:16.380Z,3.10
2022-10-10T11:33:01.497Z,3.58
2022-10-10T11:35:46.546Z,3.50
2022-10-10T11:38:33.268Z,3.85
2022-10-10T11:41:05.591Z,3.25
2022-10-10T11:43:37.892Z,4.32
2022-10-10T11:46:24.582Z,3.05
2022-10-10T11:49:00.784Z,3.22
2022-10-10T11:51:34.991Z,4.68
2022-10-10T11:54:05.738Z,4.32
2022-10-10T11:56:34.347Z,3.15
2022-10-10T11:59:04.590Z,2.80
2022-10-10T12:01:31.018Z,2.90
2022-10-10T12:03:57.519Z,2.70
2022-10-10T12:06:26.664Z,2.70
2022-10-10T12:08:52.993Z,2.95
2022-10-10T12:11:25.923Z,2.50
2022-10-10T12:13:57.077Z,2.38
2022-10-10T12:16:30.257Z,3.08
2022-10-10T12:19:06.312Z,3.03
2022-10-10T12:21:51.173Z,2.55
2022-10-10T12:24:17.546Z,2.20
2022-10-10T12:26:53.050Z,2.95
2022-10-10T12:29:38.209Z,2.65
2022-10-10T12:32:13.777Z,2.60
2022-10-10T12:34:55.851Z,2.90
2022-10-10T12:37:22.244Z,3.05
2022-10-10T12:40:06.954Z,2.63
2022-10-10T12:42:33.327Z,2.83
2022-10-10T12:45:00.158Z,2.80
2022-10-10T12:47:52.783Z,2.70
2022-10-10T12:50:22.425Z,2.88
2022-10-10T12:52:50.461Z,2.33
2022-10-10T12:55:21.255Z,2.70
2022-10-10T12:57:48.512Z,2.47
2022-10-10T13:00:19.322Z,2.60
2022-10-10T13:02:48.075Z,2.42
2022-10-10T13:05:17.371Z,2.50
2022-10-10T13:07:45.082Z,2.42
2022-10-10T13:10:40.731Z,2.80
2022-10-10T13:13:07.058Z,2.65
2022-10-10T13:15:34.345Z,2.65
2022-10-10T13:18:00.754Z,2.90
2022-10-10T13:20:32.427Z,2.78
2022-10-10T13:23:02.125Z,2.53
2022-10-10T13:25:28.529Z,2.65
2022-10-10T13:27:54.930Z,3.05
2022-10-10T13:30:22.634Z,3.22
2022-10-10T13:32:49.396Z,2.97
2022-10-10T13:35:23.904Z,2.63
2022-10-10T13:37:53.668Z,2.53
2022-10-10T13:40:20.510Z,3.55
2022-10-10T13:42:48.474Z,2.72
2022-10-10T13:45:21.131Z,3.17
2022-10-10T13:47:55.613Z,3.35
2022-10-10T13:50:24.553Z,3.30
2022-10-10T13:52:51.307Z,2.72
2022-10-10T13:55:27.424Z,3.72
2022-10-10T13:57:58.234Z,3.15
2022-10-10T14:00:30.387Z,2.90
2022-10-10T14:02:56.764Z,2.88
2022-10-10T14:05:27.677Z,4.43
2022-10-10T14:07:54.468Z,3.85
2022-10-10T14:10:25.266Z,4.32
2022-10-10T14:12:57.313Z,3.67
2022-10-10T14:15:42.075Z,6.53
2022-10-10T14:18:13.507Z,5.55
2022-10-10T14:20:39.889Z,7.10
2022-10-10T14:23:06.259Z,4.05
2022-10-10T14:25:32.632Z,3.50
2022-10-10T14:27:59.060Z,3.30
2022-10-10T14:30:25.436Z,4.53
2022-10-10T14:32:51.800Z,3.00
2022-10-10T14:35:18.127Z,3.30
2022-10-10T14:37:44.475Z,4.05
2022-10-10T14:40:19.110Z,5.97
2022-10-10T14:42:45.876Z,4.75
2022-10-10T14:45:18.452Z,3.15
2022-10-10T14:47:44.814Z,3.40
2022-10-10T14:50:15.555Z,3.40
2022-10-10T14:52:42.061Z,3.50
2022-10-10T14:55:08.875Z,4.22
2022-10-10T14:57:35.252Z,5.38
2022-10-10T15:00:01.721Z,5.18
2022-10-10T15:02:28.081Z,3.88
2022-10-10T15:04:54.515Z,3.40
2022-10-10T15:07:21.174Z,3.30
2022-10-10T15:10:17.478Z,3.63
2022-10-10T15:12:35.829Z,3.38
2022-10-10T15:15:02.687Z,3.92
2022-10-10T15:17:30.496Z,3.35
2022-10-10T15:19:56.935Z,3.30
2022-10-10T15:22:23.318Z,3.28
2022-10-10T15:24:49.667Z,3.65
2022-10-10T15:27:16.043Z,4.13
2022-10-10T15:29:42.386Z,4.10
2022-10-10T15:32:08.753Z,4.72
2022-10-10T15:34:35.442Z,4.30
2022-10-10T15:37:02.059Z,3.60
2022-10-10T15:39:29.262Z,3.42
2022-10-10T15:41:55.604Z,3.92
2022-10-10T15:44:22.067Z,3.47
2022-10-10T15:46:48.500Z,4.32
2022-10-10T15:49:14.890Z,4.05
2022-10-10T15:51:43.069Z,3.72
2022-10-10T15:54:09.491Z,4.20
2022-10-10T15:56:35.923Z,5.88
2022-10-10T15:59:02.724Z,4.88
2022-10-10T16:01:29.927Z,4.30
2022-10-10T16:03:56.884Z,3.75
2022-10-10T16:06:25.256Z,5.00
2022-10-10T16:08:59.368Z,4.22
2022-10-10T16:11:36.946Z,3.42
2022-10-10T16:14:03.318Z,3.97
2022-10-10T16:16:29.811Z,4.35
2022-10-10T16:18:56.188Z,3.83
2022-10-10T16:21:23.636Z,4.72
2022-10-10T16:23:54.276Z,4.15
2022-10-10T16:26:26.580Z,4.55
2022-10-10T16:28:54.543Z,4.30
2022-10-10T16:31:21.310Z,4.88
2022-10-10T16:33:48.155Z,4.60
2022-10-10T16:36:15.867Z,5.05
2022-10-10T16:38:42.599Z,5.55
2022-10-10T16:41:19.812Z,5.20
2022-10-10T16:43:56.677Z,5.13
2022-10-10T16:46:25.472Z,6.18
2022-10-10T16:48:51.922Z,6.20
2022-10-10T16:51:23.573Z,7.43
2022-10-10T16:53:50.663Z,6.85
2022-10-10T16:56:18.022Z,6.00
2022-10-10T16:58:44.642Z,5.68
2022-10-10T17:01:13.234Z,6.30
2022-10-10T17:03:40.092Z,6.57
2022-10-10T17:06:07.886Z,6.10
2022-10-10T17:08:34.265Z,6.68
2022-10-10T17:11:00.955Z,6.72
2022-10-10T17:13:27.997Z,6.90
2022-10-10T17:15:54.350Z,7.25
2022-10-10T17:18:20.896Z,5.80
2022-10-10T17:20:47.624Z,6.65
2022-10-10T17:23:15.020Z,7.00
2022-10-10T17:25:42.344Z,10.02
2022-10-10T17:28:08.882Z,8.07
2022-10-10T17:30:35.553Z,7.88
2022-10-10T17:33:01.911Z,6.63
2022-10-10T17:35:28.261Z,6.95
2022-10-10T17:37:56.145Z,6.68
2022-10-10T17:40:23.751Z,7.75
2022-10-10T17:42:50.121Z,8.82
2022-10-10T17:45:16.509Z,7.97
2022-10-10T17:47:42.899Z,12.75
2022-10-10T17:50:10.712Z,15.25
2022-10-10T17:52:37.125Z,8.15
2022-10-10T17:55:03.614Z,10.02
2022-10-10T17:57:30.371Z,9.27
2022-10-10T17:59:56.737Z,9.32
2022-10-10T18:02:23.096Z,8.65
2022-10-10T18:04:49.519Z,8.32
2022-10-10T18:07:15.929Z,9.43
2022-10-10T18:09:42.505Z,9.13
2022-10-10T18:12:09.014Z,7.57
2022-10-10T18:14:35.704Z,7.28
2022-10-10T18:17:02.809Z,7.88
2022-10-10T18:19:29.628Z,9.13
2022-10-10T18:21:56.414Z,9.85
2022-10-10T18:24:23.011Z,8.35
2022-10-10T18:26:49.618Z,9.43
2022-10-10T18:29:16.203Z,8.70
2022-10-10T18:31:43.139Z,9.38
2022-10-10T18:34:10.350Z,8.77
2022-10-10T18:36:37.555Z,9.48
2022-10-10T18:39:05.589Z,8.75
2022-10-10T18:41:35.070Z,8.45
2022-10-10T18:44:02.684Z,10.77
2022-10-10T18:46:29.190Z,9.27
2022-10-10T18:48:55.612Z,12.00
2022-10-10T18:51:26.064Z,12.77
2022-10-10T18:53:58.471Z,13.20
2022-10-10T18:56:25.029Z,10.75
2022-10-10T18:58:55.570Z,7.45
2022-10-10T19:01:24.915Z,9.57
2022-10-10T19:03:51.894Z,7.10
2022-10-10T19:06:18.333Z,8.23
2022-10-10T19:08:44.771Z,9.32
2022-10-10T19:11:17.956Z,10.85
2022-10-10T19:13:44.369Z,7.80
2022-10-10T19:16:10.699Z,6.40
2022-10-10T19:18:37.056Z,9.25
2022-10-10T19:21:04.831Z,8.65
2022-10-10T19:23:32.283Z,7.95
2022-10-10T19:26:05.911Z,7.03
2022-10-10T19:31:02.826Z,7.18
2022-10-10T19:33:29.430Z,8.48
2022-10-10T19:35:55.803Z,6.72
2022-10-10T19:38:22.264Z,8.63
2022-10-10T19:40:49.347Z,7.50
2022-10-10T19:43:16.577Z,6.85
2022-10-10T19:45:44.081Z,7.25
2022-10-10T19:48:10.469Z,7.53
2022-10-10T19:50:40.711Z,6.32
2022-10-10T19:53:07.302Z,6.28
2022-10-10T19:55:33.691Z,9.38
2022-10-10T19:58:00.098Z,7.82
2022-10-10T20:00:26.527Z,7.15
2022-10-10T20:02:52.900Z,5.60
2022-10-10T20:05:20.477Z,5.55
2022-10-10T20:07:49.433Z,7.15
2022-10-10T20:10:16.169Z,6.75
2022-10-10T20:12:42.559Z,6.10
2022-10-10T20:15:09.426Z,6.38
2022-10-10T20:17:35.793Z,6.22
2022-10-10T20:20:02.399Z,6.95
2022-10-10T20:22:28.815Z,8.10
2022-10-10T20:24:55.220Z,8.75
2022-10-10T20:27:21.777Z,5.43
2022-10-10T20:29:48.186Z,7.18
2022-10-10T20:32:14.564Z,6.13
2022-10-10T20:34:40.950Z,4.93
2022-10-10T20:37:07.327Z,5.70
2022-10-10T20:39:33.765Z,6.60
2022-10-10T20:42:00.150Z,6.88
2022-10-10T20:44:26.604Z,6.85
2022-10-10T20:46:53.126Z,5.82
2022-10-10T20:49:20.620Z,6.00
2022-10-10T20:51:51.767Z,5.47
2022-10-10T20:54:19.192Z,4.95
2022-10-10T20:56:45.626Z,5.85
2022-10-10T20:59:12.338Z,6.20
2022-10-10T21:01:39.121Z,5.53
2022-10-10T21:04:08.737Z,5.53
2022-10-10T21:06:36.330Z,5.97
2022-10-10T21:09:04.416Z,5.40
2022-10-10T21:11:30.822Z,5.70
2022-10-10T21:13:58.262Z,4.93
2022-10-10T21:16:26.243Z,4.38
2022-10-10T21:18:58.035Z,4.90
2022-10-10T21:21:25.647Z,5.00
2022-10-10T21:23:55.957Z,5.55
2022-10-10T21:26:23.732Z,5.15
2022-10-10T21:28:50.686Z,5.00
2022-10-10T21:31:18.355Z,5.00
2022-10-10T21:33:44.835Z,4.55
2022-10-10T21:36:11.250Z,4.97
2022-10-10T21:38:38.182Z,4.53
2022-10-10T21:41:06.020Z,4.20
2022-10-10T21:43:33.255Z,4.40
2022-10-10T21:46:03.903Z,5.00
2022-10-10T21:48:30.468Z,5.30
2022-10-10T21:50:57.386Z,5.20
2022-10-10T21:53:23.819Z,4.45
2022-10-10T21:55:50.299Z,4.85
2022-10-10T21:58:16.700Z,4.50
2022-10-10T22:00:43.214Z,4.68
2022-10-10T22:03:09.672Z,4.10
2022-10-10T22:05:36.087Z,4.97
2022-10-10T22:08:02.539Z,4.68
2022-10-10T22:10:29.118Z,4.82
2022-10-10T22:12:55.621Z,4.28
2022-10-10T22:15:22.185Z,4.60
2022-10-10T22:17:48.557Z,4.50
2022-10-10T22:20:14.956Z,4.82
2022-10-10T22:22:41.757Z,4.18
2022-10-10T22:25:09.931Z,4.70
2022-10-10T22:27:36.547Z,5.93
2022-10-10T22:30:04.138Z,4.88
2022-10-10T22:32:30.550Z,5.15
2022-10-10T22:34:56.980Z,5.13
2022-10-10T22:37:23.364Z,5.30
2022-10-10T22:39:49.741Z,5.38
2022-10-10T22:42:16.147Z,5.60
2022-10-10T22:44:42.559Z,6.53
2022-10-10T22:47:08.967Z,7.20
2022-10-10T22:49:37.851Z,6.57
2022-10-10T22:52:05.171Z,6.38
2022-10-10T22:54:31.922Z,7.30
2022-10-10T22:56:58.328Z,6.40
2022-10-10T22:59:24.734Z,5.63
2022-10-10T23:01:51.891Z,5.32
2022-10-10T23:04:18.264Z,5.20
2022-10-10T23:06:44.702Z,4.82
2022-10-10T23:09:12.788Z,5.63
2022-10-10T23:11:39.287Z,5.57
2022-10-10T23:14:05.760Z,5.28
2022-10-10T23:16:33.062Z,5.30
2022-10-10T23:18:59.430Z,4.70
2022-10-10T23:21:25.871Z,5.05
2022-10-10T23:23:52.297Z,5.85
2022-10-10T23:26:18.744Z,4.53
2022-10-10T23:28:45.218Z,4.38
2022-10-10T23:31:12.030Z,5.30
2022-10-10T23:33:38.923Z,4.15
2022-10-10T23:36:07.735Z,5.20
2022-10-10T23:38:34.452Z,5.43
2022-10-10T23:41:00.856Z,5.75
2022-10-10T23:43:27.290Z,5.38
2022-10-10T23:45:53.617Z,4.95
2022-10-10T23:48:20.270Z,5.03
2022-10-10T23:50:46.696Z,4.90
2022-10-10T23:53:13.085Z,5.70
2022-10-10T23:55:39.605Z,5.07
2022-10-10T23:58:06.201Z,6.18
